createdAt,value
2023-03-27T00:01:18.487Z,39.09
2023-03-27T00:03:49.564Z,39.25
2023-03-27T00:06:17.943Z,39.46
2023-03-27T00:08:46.919Z,39.62
2023-03-27T00:11:15.002Z,39.63
2023-03-27T00:13:49.353Z,39.92
2023-03-27T00:16:19.032Z,40.04
2023-03-27T00:18:46.820Z,39.98
2023-03-27T00:21:14.220Z,40.05
2023-03-27T00:23:42.466Z,40.38
2023-03-27T00:26:10.067Z,40.55
2023-03-27T00:28:37.119Z,40.58
2023-03-27T00:31:04.195Z,40.79
2023-03-27T00:33:31.237Z,40.80
2023-03-27T00:35:58.174Z,41.09
2023-03-27T00:38:24.973Z,41.05
2023-03-27T00:40:54.730Z,41.06
2023-03-27T00:43:34.353Z,40.82
2023-03-27T00:46:15.504Z,41.03
2023-03-27T00:48:47.263Z,41.16
2023-03-27T00:51:16.731Z,41.45
2023-03-27T00:53:45.281Z,41.46
2023-03-27T00:56:13.416Z,41.38
2023-03-27T00:58:44.838Z,41.54
2023-03-27T01:01:15.250Z,41.53
2023-03-27T01:03:45.548Z,41.50
2023-03-27T01:06:14.864Z,41.44
2023-03-27T01:08:43.939Z,41.40
2023-03-27T01:11:26.907Z,41.42
2023-03-27T01:14:30.515Z,41.59
2023-03-27T01:17:13.969Z,41.72
2023-03-27T01:19:55.955Z,42.08
2023-03-27T01:22:52.685Z,41.92
2023-03-27T01:25:37.953Z,42.06
2023-03-27T01:28:10.739Z,42.39
2023-03-27T01:30:44.952Z,42.20
2023-03-27T01:33:33.193Z,42.56
2023-03-27T01:36:19.826Z,42.36
2023-03-27T01:39:17.768Z,42.46
2023-03-27T01:42:03.950Z,42.44
2023-03-27T01:44:47.288Z,42.70
2023-03-27T01:47:31.275Z,42.58
2023-03-27T01:50:06.622Z,42.80
2023-03-27T01:52:38.425Z,42.72
2023-03-27T01:55:09.870Z,42.90
2023-03-27T01:57:49.694Z,42.90
2023-03-27T02:00:22.630Z,43.00
2023-03-27T02:03:09.359Z,43.08
2023-03-27T02:05:44.841Z,43.37
2023-03-27T02:08:17.346Z,43.27
2023-03-27T02:10:50.031Z,43.30
2023-03-27T02:13:21.653Z,43.69
2023-03-27T02:15:51.610Z,43.91
2023-03-27T02:18:26.424Z,43.95
2023-03-27T02:20:53.661Z,44.16
2023-03-27T02:23:23.068Z,44.34
2023-03-27T02:25:51.451Z,44.41
2023-03-27T02:28:49.248Z,44.52
2023-03-27T02:31:35.164Z,44.52
2023-03-27T02:34:21.249Z,44.79
2023-03-27T02:37:19.323Z,44.62
2023-03-27T02:40:31.044Z,45.00
2023-03-27T02:43:17.671Z,44.97
2023-03-27T02:46:00.832Z,44.83
2023-03-27T02:48:35.411Z,44.90
2023-03-27T02:51:13.258Z,45.11
2023-03-27T02:53:46.814Z,45.07
2023-03-27T02:56:16.456Z,45.14
2023-03-27T02:58:50.185Z,45.37
2023-03-27T03:01:39.316Z,45.40
2023-03-27T03:04:34.380Z,45.38
2023-03-27T03:07:18.707Z,45.22
2023-03-27T03:09:45.955Z,45.36
2023-03-27T03:12:12.836Z,45.24
2023-03-27T03:14:46.620Z,45.30
2023-03-27T03:17:16.082Z,45.28
2023-03-27T03:19:42.883Z,45.09
2023-03-27T03:22:10.024Z,45.69
2023-03-27T03:24:41.993Z,45.64
2023-03-27T03:27:10.866Z,45.65
2023-03-27T03:29:57.878Z,45.91
2023-03-27T03:32:27.962Z,45.84
2023-03-27T03:34:57.031Z,45.60
2023-03-27T03:37:28.739Z,45.57
2023-03-27T03:39:58.132Z,45.41
2023-03-27T03:42:24.898Z,45.66
2023-03-27T03:44:52.914Z,45.69
2023-03-27T03:47:21.945Z,45.64
2023-03-27T03:49:49.389Z,45.88
2023-03-27T03:52:16.308Z,45.68
2023-03-27T03:54:44.310Z,45.78
2023-03-27T03:57:12.620Z,45.84
2023-03-27T03:59:39.889Z,45.69
2023-03-27T04:02:30.186Z,45.86
2023-03-27T04:05:09.398Z,45.73
2023-03-27T04:07:40.084Z,45.85
2023-03-27T04:10:30.264Z,45.94
2023-03-27T04:12:59.516Z,45.96
2023-03-27T04:15:29.365Z,45.77
2023-03-27T04:18:33.178Z,46.06
2023-03-27T04:21:04.153Z,45.99
2023-03-27T04:23:30.992Z,46.11
2023-03-27T04:26:00.473Z,46.18
2023-03-27T04:28:37.276Z,46.46
2023-03-27T04:31:23.721Z,46.16
2023-03-27T04:34:25.755Z,46.33
2023-03-27T04:37:10.797Z,46.54
2023-03-27T04:39:46.408Z,46.79
2023-03-27T04:42:16.715Z,47.13
2023-03-27T04:44:46.087Z,47.10
2023-03-27T04:47:13.055Z,46.96
2023-03-27T04:49:46.851Z,47.44
2023-03-27T04:52:26.239Z,47.38
2023-03-27T04:54:53.156Z,47.35
2023-03-27T04:57:22.516Z,47.64
2023-03-27T04:59:50.337Z,47.79
2023-03-27T05:02:35.577Z,48.10
2023-03-27T05:05:21.114Z,48.20
2023-03-27T05:07:50.195Z,48.15
2023-03-27T05:10:21.758Z,48.39
2023-03-27T05:12:52.655Z,48.71
2023-03-27T05:15:21.140Z,48.76
2023-03-27T05:17:55.071Z,48.75
2023-03-27T05:20:25.361Z,49.31
2023-03-27T05:22:56.552Z,49.52
2023-03-27T05:25:29.068Z,49.66
2023-03-27T05:27:57.077Z,49.52
2023-03-27T05:30:29.055Z,49.38
2023-03-27T05:33:17.616Z,50.04
2023-03-27T05:35:48.264Z,50.15
2023-03-27T05:38:15.987Z,49.94
2023-03-27T05:41:04.044Z,50.01
2023-03-27T05:43:34.134Z,50.53
2023-03-27T05:46:01.638Z,50.38
2023-03-27T05:48:28.973Z,50.33
2023-03-27T05:51:00.784Z,50.39
2023-03-27T05:53:27.722Z,50.41
2023-03-27T05:56:14.034Z,50.10
2023-03-27T05:58:56.759Z,49.89
2023-03-27T06:01:25.886Z,49.99
2023-03-27T06:03:56.244Z,49.70
2023-03-27T06:06:35.693Z,49.25
2023-03-27T06:09:03.797Z,48.89
2023-03-27T06:11:30.856Z,48.61
2023-03-27T06:13:58.805Z,49.00
2023-03-27T06:16:40.874Z,48.23
2023-03-27T06:19:26.174Z,47.99
2023-03-27T06:21:53.204Z,48.09
2023-03-27T06:24:20.064Z,47.65
2023-03-27T06:26:47.466Z,47.63
2023-03-27T06:29:14.244Z,47.32
2023-03-27T06:31:46.760Z,47.39
2023-03-27T06:34:24.569Z,46.87
2023-03-27T06:36:56.212Z,46.64
2023-03-27T06:39:23.124Z,46.64
2023-03-27T06:41:52.150Z,46.83
2023-03-27T06:44:34.643Z,47.02
2023-03-27T06:47:24.224Z,47.52
2023-03-27T06:50:18.211Z,47.36
2023-03-27T06:52:45.489Z,47.39
2023-03-27T06:55:41.754Z,46.92
2023-03-27T06:58:09.082Z,47.20
2023-03-27T07:00:37.429Z,46.93
2023-03-27T07:03:21.417Z,46.68
2023-03-27T07:06:11.610Z,46.50
2023-03-27T07:08:47.724Z,46.20
2023-03-27T07:11:16.017Z,46.31
2023-03-27T07:13:54.345Z,46.16
2023-03-27T07:16:25.527Z,46.26
2023-03-27T07:18:52.561Z,45.74
2023-03-27T07:21:20.899Z,47.09
2023-03-27T07:23:47.735Z,45.33
2023-03-27T07:26:19.386Z,44.93
2023-03-27T07:29:01.046Z,45.18
2023-03-27T07:31:50.956Z,44.57
2023-03-27T07:34:16.089Z,44.37
2023-03-27T07:37:16.089Z,44.12
2023-03-27T07:40:08.970Z,43.69
2023-03-27T07:42:39.577Z,43.28
2023-03-27T07:45:16.406Z,43.74
2023-03-27T07:47:46.117Z,43.34
2023-03-27T07:50:15.762Z,43.19
2023-03-27T07:52:46.103Z,43.00
2023-03-27T07:55:17.425Z,42.74
2023-03-27T07:58:01.720Z,42.82
2023-03-27T08:00:35.293Z,42.06
2023-03-27T08:03:14.462Z,42.97
2023-03-27T08:05:59.064Z,42.92
2023-03-27T08:08:29.026Z,41.56
2023-03-27T08:10:59.637Z,41.35
2023-03-27T08:13:32.174Z,40.83
2023-03-27T08:16:17.612Z,40.47
2023-03-27T08:18:46.898Z,40.57
2023-03-27T08:21:14.497Z,40.37
2023-03-27T08:23:41.606Z,41.97
2023-03-27T08:26:09.232Z,41.12
2023-03-27T08:28:47.981Z,40.43
2023-03-27T08:31:16.313Z,39.46
2023-03-27T08:33:44.666Z,39.09
2023-03-27T08:36:20.041Z,38.57
2023-03-27T08:38:47.065Z,38.75
2023-03-27T08:41:30.740Z,39.17
2023-03-27T08:44:15.803Z,38.85
2023-03-27T08:46:46.856Z,39.85
2023-03-27T08:49:18.486Z,38.65
2023-03-27T08:52:16.505Z,47.89
2023-03-27T08:55:09.788Z,49.34
2023-03-27T08:57:43.886Z,51.28
2023-03-27T09:00:25.212Z,49.41
2023-03-27T09:03:21.242Z,49.99
2023-03-27T09:05:57.808Z,48.77
2023-03-27T09:08:47.005Z,48.00
2023-03-27T09:11:24.117Z,45.31
2023-03-27T09:13:57.290Z,44.58
2023-03-27T09:16:49.297Z,45.27
2023-03-27T09:19:46.346Z,42.42
2023-03-27T09:22:29.068Z,43.21
2023-03-27T09:25:27.572Z,51.44
2023-03-27T09:28:42.659Z,52.85
2023-03-27T09:31:27.710Z,52.86
2023-03-27T09:33:57.982Z,53.42
2023-03-27T09:36:24.832Z,54.62
2023-03-27T09:38:58.711Z,53.79
2023-03-27T09:41:43.759Z,52.70
2023-03-27T09:44:18.020Z,52.46
2023-03-27T09:46:48.983Z,53.25
2023-03-27T09:49:20.970Z,53.15
2023-03-27T09:51:59.483Z,52.81
2023-03-27T09:54:52.878Z,51.24
2023-03-27T09:57:28.542Z,51.87
2023-03-27T09:59:58.776Z,51.55
2023-03-27T10:02:29.529Z,52.15
2023-03-27T10:05:22.149Z,52.49
2023-03-27T10:07:54.279Z,49.06
2023-03-27T10:10:45.812Z,47.77
2023-03-27T10:13:31.270Z,47.62
2023-03-27T10:16:02.003Z,46.75
2023-03-27T10:18:43.451Z,46.58
2023-03-27T10:21:24.225Z,45.60
2023-03-27T10:23:51.599Z,45.45
2023-03-27T10:26:37.071Z,45.89
2023-03-27T10:29:22.235Z,44.99
2023-03-27T10:32:00.499Z,44.33
2023-03-27T10:34:57.361Z,44.67
2023-03-27T10:37:50.300Z,42.74
2023-03-27T10:40:50.112Z,44.11
2023-03-27T10:43:33.737Z,43.31
2023-03-27T10:46:08.888Z,41.49
2023-03-27T10:48:54.830Z,44.24
2023-03-27T10:52:02.055Z,44.55
2023-03-27T10:55:05.253Z,43.03
2023-03-27T10:57:38.139Z,43.13
2023-03-27T11:00:21.177Z,43.98
2023-03-27T11:03:03.681Z,43.02
2023-03-27T11:05:40.137Z,42.41
2023-03-27T11:08:28.045Z,42.57
2023-03-27T11:11:02.351Z,42.92
2023-03-27T11:13:37.038Z,43.17
2023-03-27T11:16:29.062Z,43.89
2023-03-27T11:19:10.799Z,44.80
2023-03-27T11:22:22.286Z,45.69
2023-03-27T11:25:02.936Z,45.68
2023-03-27T11:27:41.213Z,46.39
2023-03-27T11:30:14.568Z,46.29
2023-03-27T11:33:12.625Z,45.98
2023-03-27T11:35:48.722Z,46.15
2023-03-27T11:38:38.726Z,45.83
2023-03-27T11:41:08.131Z,46.04
2023-03-27T11:43:38.235Z,46.20
2023-03-27T11:46:13.479Z,45.92
2023-03-27T11:48:52.590Z,45.73
2023-03-27T11:51:41.818Z,45.79
2023-03-27T11:54:29.825Z,45.99
2023-03-27T11:57:10.835Z,46.39
2023-03-27T12:00:05.250Z,47.53
2023-03-27T12:02:59.685Z,48.05
2023-03-27T12:05:55.291Z,47.96
2023-03-27T12:08:51.137Z,48.10
2023-03-27T12:11:20.555Z,48.78
2023-03-27T12:14:05.502Z,49.91
2023-03-27T12:16:52.773Z,50.26
2023-03-27T12:19:38.234Z,51.06
2023-03-27T12:23:03.516Z,51.27
2023-03-27T12:25:55.650Z,50.99
2023-03-27T12:28:55.945Z,51.37
2023-03-27T12:32:05.353Z,51.01
2023-03-27T12:34:41.096Z,51.54
2023-03-27T12:37:13.352Z,51.95
2023-03-27T12:39:53.616Z,51.96
2023-03-27T12:42:44.077Z,52.49
2023-03-27T12:45:18.280Z,52.86
2023-03-27T12:48:10.067Z,52.30
2023-03-27T12:50:51.691Z,52.19
2023-03-27T12:53:25.537Z,53.18
2023-03-27T12:56:16.377Z,53.40
2023-03-27T12:58:47.873Z,53.30
2023-03-27T13:01:51.744Z,53.13
2023-03-27T13:04:54.981Z,53.77
2023-03-27T13:07:52.778Z,53.46
2023-03-27T13:10:44.631Z,53.40
2023-03-27T13:13:32.520Z,53.30
2023-03-27T13:16:11.969Z,53.63
2023-03-27T13:18:59.026Z,53.97
2023-03-27T13:21:37.864Z,53.79
2023-03-27T13:24:23.762Z,54.02
2023-03-27T13:27:14.265Z,53.58
2023-03-27T13:29:41.706Z,53.61
2023-03-27T13:32:31.032Z,52.72
2023-03-27T13:35:24.860Z,52.47
2023-03-27T13:37:54.047Z,52.17
2023-03-27T13:40:38.772Z,52.63
2023-03-27T13:43:26.128Z,53.05
2023-03-27T13:46:05.404Z,53.43
2023-03-27T13:48:55.734Z,54.60
2023-03-27T13:51:48.230Z,54.95
2023-03-27T13:54:28.006Z,54.78
2023-03-27T13:57:05.542Z,54.71
2023-03-27T13:59:58.446Z,55.03
2023-03-27T14:03:12.615Z,54.21
2023-03-27T14:06:27.918Z,53.36
2023-03-27T14:09:00.186Z,54.51
2023-03-27T14:12:13.047Z,52.82
2023-03-27T14:15:12.845Z,52.59
2023-03-27T14:18:05.317Z,53.17
2023-03-27T14:20:49.188Z,53.17
2023-03-27T14:23:25.741Z,52.96
2023-03-27T14:26:21.501Z,53.45
2023-03-27T14:28:58.867Z,54.08
2023-03-27T14:31:35.460Z,54.32
2023-03-27T14:34:12.249Z,54.56
2023-03-27T14:36:47.585Z,54.66
2023-03-27T14:39:28.454Z,54.75
2023-03-27T14:42:03.620Z,53.56
2023-03-27T14:44:34.366Z,52.54
2023-03-27T14:47:13.632Z,52.13
2023-03-27T14:49:49.297Z,52.54
2023-03-27T14:52:35.272Z,50.22
2023-03-27T14:55:26.983Z,52.10
2023-03-27T14:58:18.631Z,53.11
2023-03-27T15:00:57.952Z,53.86
2023-03-27T15:03:30.923Z,53.53
2023-03-27T15:06:21.168Z,53.59
2023-03-27T15:08:55.997Z,53.37
2023-03-27T15:11:55.531Z,51.95
2023-03-27T15:14:30.433Z,52.21
2023-03-27T15:17:03.078Z,51.26
2023-03-27T15:19:45.431Z,49.88
2023-03-27T15:22:31.439Z,52.78
2023-03-27T15:25:28.762Z,53.68
2023-03-27T15:27:59.027Z,53.54
2023-03-27T15:30:33.985Z,53.04
2023-03-27T15:33:02.318Z,53.84
2023-03-27T15:35:36.096Z,54.11
2023-03-27T15:38:06.369Z,53.03
2023-03-27T15:40:40.249Z,53.04
2023-03-27T15:43:08.997Z,53.00
2023-03-27T15:45:58.321Z,52.97
2023-03-27T15:48:32.353Z,54.00
2023-03-27T15:51:09.619Z,54.83
2023-03-27T15:53:42.528Z,54.50
2023-03-27T15:56:48.145Z,54.47
2023-03-27T15:59:16.519Z,55.14
2023-03-27T16:01:53.710Z,54.63
2023-03-27T16:04:25.775Z,54.32
2023-03-27T16:07:24.811Z,54.59
2023-03-27T16:10:02.495Z,54.50
2023-03-27T16:12:47.985Z,55.38
2023-03-27T16:15:36.553Z,55.00
2023-03-27T16:18:29.978Z,54.85
2023-03-27T16:21:13.196Z,55.01
2023-03-27T16:23:40.790Z,53.95
2023-03-27T16:26:12.656Z,54.35
2023-03-27T16:28:41.001Z,54.05
2023-03-27T16:31:16.586Z,54.19
2023-03-27T16:33:45.294Z,54.07
2023-03-27T16:36:15.266Z,53.40
2023-03-27T16:38:43.765Z,54.18
2023-03-27T16:41:13.358Z,52.84
2023-03-27T16:43:40.536Z,53.96
2023-03-27T16:46:16.962Z,53.98
2023-03-27T16:48:43.810Z,53.72
2023-03-27T16:51:13.217Z,54.19
2023-03-27T16:53:39.914Z,54.16
2023-03-27T16:56:07.240Z,53.91
2023-03-27T16:58:34.017Z,53.48
2023-03-27T17:01:01.061Z,53.95
2023-03-27T17:03:27.881Z,54.28
2023-03-27T17:06:00.000Z,54.62
2023-03-27T17:08:27.329Z,55.35
2023-03-27T17:10:54.045Z,54.75
2023-03-27T17:13:21.247Z,54.52
2023-03-27T17:15:50.192Z,55.09
2023-03-27T17:18:16.994Z,55.34
2023-03-27T17:20:43.913Z,56.23
2023-03-27T17:23:11.893Z,56.67
2023-03-27T17:25:38.573Z,57.52
2023-03-27T17:28:07.103Z,58.39
2023-03-27T17:30:39.754Z,58.37
2023-03-27T17:33:12.904Z,59.21
2023-03-27T17:35:40.815Z,60.90
2023-03-27T17:38:08.926Z,61.11
2023-03-27T17:40:39.525Z,62.40
2023-03-27T17:43:06.549Z,63.25
2023-03-27T17:45:33.338Z,63.02
2023-03-27T17:48:00.257Z,63.59
2023-03-27T17:50:27.060Z,64.35
2023-03-27T17:52:53.859Z,64.64
2023-03-27T17:55:20.649Z,64.74
2023-03-27T17:57:53.114Z,65.14
2023-03-27T18:00:26.072Z,65.26
2023-03-27T18:02:52.953Z,66.01
2023-03-27T18:05:22.870Z,65.41
2023-03-27T18:07:49.632Z,64.41
2023-03-27T18:10:21.204Z,63.75
2023-03-27T18:12:48.300Z,63.61
2023-03-27T18:15:15.238Z,63.73
2023-03-27T18:17:41.993Z,64.28
2023-03-27T18:20:10.280Z,63.70
2023-03-27T18:22:38.296Z,63.78
2023-03-27T18:25:06.817Z,63.93
2023-03-27T18:27:33.590Z,64.50
2023-03-27T18:30:01.593Z,64.54
2023-03-27T18:32:28.451Z,64.22
2023-03-27T18:34:55.519Z,63.86
2023-03-27T18:37:22.414Z,64.93
2023-03-27T18:39:49.121Z,64.90
2023-03-27T18:42:15.845Z,65.25
2023-03-27T18:44:42.641Z,64.70
2023-03-27T18:47:09.401Z,64.93
2023-03-27T18:49:37.787Z,64.74
2023-03-27T18:52:04.888Z,64.74
2023-03-27T18:54:31.708Z,64.87
2023-03-27T18:56:58.488Z,64.36
2023-03-27T18:59:25.478Z,64.50
2023-03-27T19:01:52.423Z,64.73
2023-03-27T19:04:19.288Z,64.25
2023-03-27T19:06:46.820Z,64.34
2023-03-27T19:09:14.451Z,64.18
2023-03-27T19:11:41.706Z,63.91
2023-03-27T19:14:27.930Z,64.38
2023-03-27T19:17:21.139Z,63.97
2023-03-27T19:20:10.984Z,63.62
2023-03-27T19:22:50.473Z,63.70
2023-03-27T19:25:27.666Z,63.62
2023-03-27T19:27:54.689Z,63.42
2023-03-27T19:30:21.629Z,63.51
2023-03-27T19:32:50.218Z,63.45
2023-03-27T19:35:17.207Z,63.72
2023-03-27T19:37:44.075Z,63.92
2023-03-27T19:40:11.482Z,64.26
2023-03-27T19:42:38.316Z,64.31
2023-03-27T19:45:05.821Z,64.28
2023-03-27T19:47:32.719Z,64.07
2023-03-27T19:49:59.685Z,64.13
2023-03-27T19:52:32.942Z,64.10
2023-03-27T19:54:59.692Z,64.11
2023-03-27T19:57:26.685Z,63.83
2023-03-27T19:59:53.503Z,64.63
2023-03-27T20:02:20.953Z,64.56
2023-03-27T20:04:49.131Z,64.43
2023-03-27T20:07:15.925Z,64.81
2023-03-27T20:09:42.650Z,64.67
2023-03-27T20:12:11.282Z,64.80
2023-03-27T20:14:38.145Z,64.76
2023-03-27T20:17:07.933Z,64.77
2023-03-27T20:19:46.212Z,65.19
2023-03-27T20:22:13.002Z,65.23
2023-03-27T20:24:40.312Z,65.31
2023-03-27T20:27:07.199Z,65.05
2023-03-27T20:29:34.002Z,64.86
2023-03-27T20:32:00.866Z,64.83
2023-03-27T20:34:27.755Z,65.12
2023-03-27T20:36:54.837Z,64.76
2023-03-27T20:39:49.932Z,65.01
2023-03-27T20:42:23.107Z,65.10
2023-03-27T20:44:58.319Z,64.87
2023-03-27T20:47:25.394Z,65.32
2023-03-27T20:49:52.201Z,65.25
2023-03-27T20:52:19.664Z,65.35
2023-03-27T20:54:47.934Z,65.18
2023-03-27T20:57:17.017Z,65.55
2023-03-27T20:59:46.169Z,65.28
2023-03-27T21:02:17.689Z,64.80
2023-03-27T21:04:46.759Z,65.09
2023-03-27T21:07:15.982Z,65.17
2023-03-27T21:09:45.338Z,65.79
2023-03-27T21:12:12.254Z,65.76
2023-03-27T21:14:39.251Z,65.88
2023-03-27T21:17:06.018Z,65.12
2023-03-27T21:19:32.883Z,64.99
2023-03-27T21:21:59.664Z,64.95
2023-03-27T21:24:27.093Z,64.69
2023-03-27T21:26:53.944Z,64.78
2023-03-27T21:29:20.982Z,64.46
2023-03-27T21:31:47.865Z,64.51
2023-03-27T21:34:14.653Z,64.26
2023-03-27T21:36:41.890Z,64.36
2023-03-27T21:39:10.019Z,64.22
2023-03-27T21:41:36.918Z,64.45
2023-03-27T21:44:03.780Z,64.56
2023-03-27T21:46:30.720Z,64.34
2023-03-27T21:48:57.467Z,64.42
2023-03-27T21:51:24.263Z,64.29
2023-03-27T21:53:51.080Z,64.42
2023-03-27T21:56:17.798Z,64.21
2023-03-27T21:58:44.502Z,64.51
2023-03-27T22:01:12.263Z,64.54
2023-03-27T22:03:39.099Z,64.77
2023-03-27T22:06:12.419Z,64.38
2023-03-27T22:08:41.526Z,64.65
2023-03-27T22:11:09.214Z,64.52
2023-03-27T22:13:37.300Z,64.50
2023-03-27T22:16:18.052Z,64.70
2023-03-27T22:18:45.107Z,64.72
2023-03-27T22:21:23.843Z,64.61
2023-03-27T22:23:51.938Z,64.67
2023-03-27T22:26:20.468Z,64.65
2023-03-27T22:28:47.431Z,64.62
2023-03-27T22:31:14.540Z,64.60
2023-03-27T22:33:41.688Z,64.75
2023-03-27T22:36:11.071Z,64.59
2023-03-27T22:38:38.333Z,64.86
2023-03-27T22:41:06.953Z,64.82
2023-03-27T22:43:33.766Z,64.96
2023-03-27T22:46:16.532Z,65.00
2023-03-27T22:48:43.723Z,64.80
2023-03-27T22:51:12.240Z,65.20
2023-03-27T22:53:39.742Z,64.86
2023-03-27T22:56:07.579Z,65.04
2023-03-27T22:58:34.462Z,64.82
2023-03-27T23:01:01.505Z,65.01
2023-03-27T23:03:28.508Z,65.22
2023-03-27T23:05:55.884Z,65.11
2023-03-27T23:08:24.638Z,65.06
2023-03-27T23:11:02.644Z,65.27
2023-03-27T23:13:31.346Z,65.55
2023-03-27T23:15:58.737Z,65.40
2023-03-27T23:18:25.990Z,65.51
2023-03-27T23:20:58.360Z,65.37
2023-03-27T23:23:26.724Z,65.50
2023-03-27T23:25:54.615Z,65.61
2023-03-27T23:28:22.113Z,65.83
2023-03-27T23:31:03.377Z,65.89
2023-03-27T23:33:35.367Z,66.05
2023-03-27T23:36:03.963Z,66.25
2023-03-27T23:38:30.809Z,66.30
2023-03-27T23:40:59.001Z,66.24
2023-03-27T23:43:27.726Z,66.22
2023-03-27T23:45:55.951Z,66.17
2023-03-27T23:48:23.494Z,66.05
2023-03-27T23:50:51.896Z,65.76
2023-03-27T23:53:20.816Z,65.63
2023-03-27T23:55:48.020Z,65.74
2023-03-27T23:58:15.230Z,65.54
